createdAt,value
2019-04-21T00:01:10.196Z,10.78
2019-04-21T00:03:43.056Z,10.75
2019-04-21T00:06:31.923Z,10.69
2019-04-21T00:09:02.461Z,10.57
2019-04-21T00:11:29.868Z,10.52
2019-04-21T00:13:55.036Z,10.46
2019-04-21T00:16:14.120Z,10.35
2019-04-21T00:19:14.545Z,10.31
2019-04-21T00:21:44.907Z,10.29
2019-04-21T00:24:23.940Z,10.30
2019-04-21T00:27:01.132Z,10.30
2019-04-21T00:29:36.647Z,10.28
2019-04-21T00:32:00.256Z,10.18
2019-04-21T00:34:15.519Z,10.11
2019-04-21T00:36:55.977Z,9.97
2019-04-21T00:39:44.017Z,9.89
2019-04-21T00:42:08.409Z,9.88
2019-04-21T00:44:29.532Z,9.86
2019-04-21T00:47:01.768Z,9.87
2019-04-21T00:49:36.953Z,9.84
2019-04-21T00:52:48.842Z,9.78
2019-04-21T00:55:29.844Z,9.74
2019-04-21T00:57:51.493Z,9.75
2019-04-21T01:00:18.764Z,9.73
2019-04-21T01:02:52.517Z,9.74
2019-04-21T01:05:38.632Z,9.70
2019-04-21T01:07:45.584Z,9.52
2019-04-21T01:10:16.147Z,9.36
2019-04-21T01:12:56.091Z,9.23
2019-04-21T01:17:51.653Z,9.21
2019-04-21T01:20:16.496Z,9.22
2019-04-21T01:22:33.448Z,9.23
2019-04-21T01:25:11.965Z,9.22
2019-04-21T01:27:56.452Z,9.21
2019-04-21T01:30:29.610Z,9.20
2019-04-21T01:33:00.085Z,9.18
2019-04-21T01:35:25.668Z,9.16
2019-04-21T01:38:02.041Z,9.14
2019-04-21T01:40:55.486Z,9.10
2019-04-21T01:43:23.439Z,9.02
2019-04-21T01:45:53.921Z,8.98
2019-04-21T01:48:24.671Z,8.93
2019-04-21T01:50:56.807Z,8.87
2019-04-21T01:53:36.461Z,8.81
2019-04-21T01:56:24.115Z,8.76
2019-04-21T01:58:44.375Z,8.70
2019-04-21T02:01:24.239Z,8.68
2019-04-21T02:06:29.045Z,8.64
2019-04-21T02:08:58.080Z,8.64
2019-04-21T02:11:32.799Z,8.64
2019-04-21T02:14:07.352Z,8.59
2019-04-21T02:16:28.235Z,8.58
2019-04-21T02:18:58.927Z,8.59
2019-04-21T02:21:29.929Z,8.56
2019-04-21T02:26:37.526Z,8.54
2019-04-21T02:29:10.762Z,8.54
2019-04-21T02:32:43.002Z,8.53
2019-04-21T02:37:05.302Z,8.45
2019-04-21T02:42:03.350Z,8.41
2019-04-21T02:49:41.800Z,8.26
2019-04-21T02:57:04.694Z,8.02
2019-04-21T03:00:06.450Z,7.97
2019-04-21T03:02:43.037Z,7.95
2019-04-21T03:08:40.476Z,7.86
2019-04-21T03:10:51.787Z,7.80
2019-04-21T03:13:21.872Z,7.78
2019-04-21T03:15:47.410Z,7.77
2019-04-21T03:18:12.977Z,7.77
2019-04-21T03:20:49.670Z,7.77
2019-04-21T03:23:36.687Z,7.74
2019-04-21T03:28:28.284Z,7.69
2019-04-21T03:38:29.265Z,7.54
2019-04-21T03:40:50.947Z,7.53
2019-04-21T03:45:49.745Z,7.51
2019-04-21T03:48:27.089Z,7.47
2019-04-21T03:50:58.854Z,7.44
2019-04-21T03:56:06.777Z,7.36
2019-04-21T04:01:16.525Z,7.37
2019-04-21T04:04:16.062Z,7.33
2019-04-21T04:07:05.723Z,7.29
2019-04-21T04:11:56.680Z,7.17
2019-04-21T04:17:11.709Z,7.13
2019-04-21T04:19:40.287Z,7.12
2019-04-21T04:22:20.781Z,7.11
2019-04-21T04:24:39.113Z,7.12
2019-04-21T04:27:20.909Z,7.13
2019-04-21T04:29:31.863Z,7.10
2019-04-21T04:32:03.662Z,7.11
2019-04-21T04:34:47.676Z,7.07
2019-04-21T04:39:48.525Z,7.00
2019-04-21T04:42:35.505Z,6.97
2019-04-21T04:45:05.861Z,6.97
2019-04-21T04:47:43.079Z,7.00
2019-04-21T04:49:54.979Z,7.05
2019-04-21T04:52:32.846Z,7.09
2019-04-21T04:55:03.785Z,7.07
2019-04-21T04:57:47.030Z,7.08
2019-04-21T05:10:07.480Z,7.16
2019-04-21T05:15:07.738Z,7.21
2019-04-21T05:17:43.301Z,7.25
2019-04-21T05:20:15.890Z,7.32
2019-04-21T05:22:37.501Z,7.37
2019-04-21T05:24:58.249Z,7.43
2019-04-21T05:27:47.227Z,7.49
2019-04-21T05:30:33.908Z,7.57
2019-04-21T05:33:25.718Z,7.65
2019-04-21T05:36:04.805Z,7.70
2019-04-21T05:39:01.292Z,7.78
2019-04-21T05:41:24.571Z,7.82
2019-04-21T05:44:07.652Z,7.78
2019-04-21T05:46:35.673Z,7.74
2019-04-21T05:49:10.977Z,7.69
2019-04-21T05:51:35.555Z,7.70
2019-04-21T05:54:24.593Z,7.74
2019-04-21T05:56:45.238Z,7.75
2019-04-21T05:59:15.192Z,7.80
2019-04-21T06:01:49.927Z,7.88
2019-04-21T06:04:34.100Z,7.93
2019-04-21T06:06:58.753Z,8.01
2019-04-21T06:09:19.031Z,8.13
2019-04-21T06:11:51.027Z,8.17
2019-04-21T06:14:20.255Z,8.24
2019-04-21T06:16:57.069Z,8.34
2019-04-21T06:19:31.180Z,8.44
2019-04-21T06:21:51.343Z,8.54
2019-04-21T06:24:25.133Z,8.61
2019-04-21T06:29:29.204Z,8.74
2019-04-21T06:34:43.829Z,8.92
2019-04-21T06:37:34.530Z,9.02
2019-04-21T06:42:14.729Z,9.27
2019-04-21T06:44:54.082Z,9.39
2019-04-21T06:47:26.651Z,9.52
2019-04-21T06:49:44.275Z,9.63
2019-04-21T06:52:44.786Z,9.08
2019-04-21T06:57:26.140Z,10.07
2019-04-21T06:59:51.041Z,10.20
2019-04-21T07:02:40.913Z,10.34
2019-04-21T07:04:54.606Z,10.51
2019-04-21T07:07:26.064Z,10.69
2019-04-21T07:09:57.261Z,10.88
2019-04-21T07:12:21.999Z,11.05
2019-04-21T07:14:59.525Z,11.24
2019-04-21T07:17:30.686Z,11.50
2019-04-21T07:20:02.144Z,11.88
2019-04-21T07:22:31.296Z,12.51
2019-04-21T07:25:03.324Z,13.63
2019-04-21T07:27:36.949Z,15.91
2019-04-21T07:30:04.290Z,19.07
2019-04-21T07:32:33.453Z,21.80
2019-04-21T07:35:05.240Z,24.13
2019-04-21T07:37:39.217Z,25.91
2019-04-21T07:40:03.797Z,27.23
2019-04-21T07:42:32.791Z,28.25
2019-04-21T07:44:57.683Z,29.28
2019-04-21T07:48:03.392Z,30.57
2019-04-21T07:51:11.282Z,30.93
2019-04-21T07:53:55.687Z,31.40
2019-04-21T07:56:06.553Z,32.38
2019-04-21T07:58:54.186Z,33.18
2019-04-21T08:01:28.862Z,33.74
2019-04-21T08:03:54.397Z,33.99
2019-04-21T08:06:27.061Z,34.63
2019-04-21T08:08:55.981Z,34.77
2019-04-21T08:11:22.437Z,34.80
2019-04-21T08:13:56.158Z,34.88
2019-04-21T08:16:34.951Z,34.72
2019-04-21T08:18:58.279Z,34.36
2019-04-21T08:21:33.981Z,34.18
2019-04-21T08:23:59.669Z,34.07
2019-04-21T08:26:39.813Z,34.01
2019-04-21T08:29:13.191Z,33.81
2019-04-21T08:31:46.974Z,33.60
2019-04-21T08:34:07.708Z,33.40
2019-04-21T08:36:34.122Z,33.02
2019-04-21T08:39:06.541Z,32.48
2019-04-21T08:41:31.609Z,31.90
2019-04-21T08:44:10.690Z,31.66
2019-04-21T08:46:39.091Z,31.30
2019-04-21T08:49:09.050Z,30.62
2019-04-21T08:51:40.874Z,30.09
2019-04-21T08:54:16.517Z,29.79
2019-04-21T08:56:46.684Z,29.73
2019-04-21T08:59:42.244Z,29.54
2019-04-21T09:02:23.499Z,29.22
2019-04-21T09:04:50.708Z,28.52
2019-04-21T09:07:29.132Z,27.96
2019-04-21T09:09:54.683Z,27.78
2019-04-21T09:12:22.627Z,27.79
2019-04-21T09:14:58.147Z,27.68
2019-04-21T09:17:20.611Z,27.32
2019-04-21T09:19:58.023Z,26.91
2019-04-21T09:22:24.217Z,26.75
2019-04-21T09:25:00.110Z,26.74
2019-04-21T09:27:29.393Z,26.39
2019-04-21T09:29:47.877Z,26.39
2019-04-21T09:32:16.596Z,26.39
2019-04-21T09:34:45.297Z,26.19
2019-04-21T09:37:26.547Z,25.85
2019-04-21T09:39:48.835Z,25.54
2019-04-21T09:42:16.778Z,25.52
2019-04-21T09:44:48.273Z,25.67
2019-04-21T09:47:21.269Z,25.90
2019-04-21T09:49:47.659Z,26.00
2019-04-21T09:52:20.896Z,26.11
2019-04-21T09:54:57.500Z,26.19
2019-04-21T09:57:27.393Z,26.02
2019-04-21T10:00:00.910Z,25.79
2019-04-21T10:02:32.885Z,25.60
2019-04-21T10:04:52.650Z,25.63
2019-04-21T10:07:28.119Z,25.56
2019-04-21T10:09:54.504Z,23.44
2019-04-21T10:12:23.685Z,25.06
2019-04-21T10:14:52.835Z,25.05
2019-04-21T10:17:33.061Z,25.05
2019-04-21T10:20:03.181Z,24.92
2019-04-21T10:22:33.024Z,24.85
2019-04-21T10:25:06.717Z,25.13
2019-04-21T10:27:36.959Z,25.31
2019-04-21T10:30:07.861Z,25.22
2019-04-21T10:32:38.496Z,25.26
2019-04-21T10:35:08.163Z,25.20
2019-04-21T10:37:49.813Z,24.92
2019-04-21T10:40:17.645Z,24.90
2019-04-21T10:42:48.091Z,24.93
2019-04-21T10:45:18.894Z,24.78
2019-04-21T10:47:49.341Z,24.83
2019-04-21T10:50:20.370Z,24.74
2019-04-21T10:53:02.909Z,24.64
2019-04-21T10:55:48.696Z,24.78
2019-04-21T10:58:20.787Z,24.91
2019-04-21T11:00:54.158Z,24.92
2019-04-21T11:03:42.876Z,24.91
2019-04-21T11:06:14.763Z,24.75
2019-04-21T11:08:47.578Z,24.71
2019-04-21T11:11:16.131Z,24.52
2019-04-21T11:13:46.384Z,24.38
2019-04-21T11:16:17.128Z,24.29
2019-04-21T11:18:46.533Z,24.37
2019-04-21T11:21:16.655Z,24.54
2019-04-21T11:23:45.969Z,24.62
2019-04-21T11:26:16.048Z,24.73
2019-04-21T11:28:45.343Z,24.86
2019-04-21T11:31:15.436Z,25.08
2019-04-21T11:33:45.254Z,25.14
2019-04-21T11:36:15.467Z,25.28
2019-04-21T11:39:31.693Z,25.29
2019-04-21T11:41:54.077Z,25.31
2019-04-21T11:44:24.715Z,25.31
2019-04-21T11:46:54.458Z,25.17
2019-04-21T11:49:24.268Z,25.08
2019-04-21T11:51:55.086Z,25.01
2019-04-21T11:54:26.802Z,25.04
2019-04-21T11:56:56.905Z,25.22
2019-04-21T11:59:26.354Z,25.37
2019-04-21T12:01:55.540Z,25.54
2019-04-21T12:04:25.489Z,25.48
2019-04-21T12:06:55.967Z,25.42
2019-04-21T12:09:25.588Z,25.33
2019-04-21T12:11:54.810Z,25.20
2019-04-21T12:14:23.998Z,25.19
2019-04-21T12:16:53.284Z,25.31
2019-04-21T12:19:22.889Z,25.39
2019-04-21T12:22:01.173Z,25.33
2019-04-21T12:24:24.887Z,25.33
2019-04-21T12:26:54.189Z,25.43
2019-04-21T12:29:23.353Z,25.35
2019-04-21T12:32:10.000Z,25.38
2019-04-21T12:34:39.701Z,25.57
2019-04-21T12:37:08.974Z,25.50
2019-04-21T12:39:38.762Z,25.52
2019-04-21T12:42:08.901Z,25.67
2019-04-21T12:44:39.163Z,25.77
2019-04-21T12:47:12.067Z,25.83
2019-04-21T12:49:43.720Z,25.95
2019-04-21T12:52:13.465Z,25.88
2019-04-21T12:54:43.938Z,25.94
2019-04-21T12:57:13.799Z,26.02
2019-04-21T12:59:43.085Z,26.02
2019-04-21T13:02:13.632Z,25.87
2019-04-21T13:04:43.952Z,25.87
2019-04-21T13:07:13.454Z,25.93
2019-04-21T13:09:42.569Z,26.14
2019-04-21T13:12:13.022Z,26.26
2019-04-21T13:14:42.290Z,26.19
2019-04-21T13:17:11.384Z,26.23
2019-04-21T13:19:41.223Z,26.20
2019-04-21T13:22:12.087Z,26.24
2019-04-21T13:24:42.114Z,26.34
2019-04-21T13:27:12.705Z,26.26
2019-04-21T13:29:42.125Z,26.06
2019-04-21T13:32:12.579Z,25.94
2019-04-21T13:34:42.161Z,25.96
2019-04-21T13:37:11.967Z,26.15
2019-04-21T13:40:21.110Z,26.30
2019-04-21T13:42:40.209Z,26.29
2019-04-21T13:45:04.899Z,26.53
2019-04-21T13:47:36.443Z,26.53
2019-04-21T13:50:07.128Z,26.72
2019-04-21T13:52:36.922Z,26.73
2019-04-21T13:55:07.731Z,26.71
2019-04-21T13:57:36.941Z,26.55
2019-04-21T14:00:07.081Z,26.37
2019-04-21T14:02:36.628Z,26.21
2019-04-21T14:05:11.496Z,26.21
2019-04-21T14:07:38.995Z,25.97
2019-04-21T14:10:10.597Z,25.95
2019-04-21T14:12:40.518Z,25.94
2019-04-21T14:15:10.433Z,25.92
2019-04-21T14:17:39.589Z,25.96
2019-04-21T14:20:09.150Z,26.12
2019-04-21T14:22:38.337Z,26.26
2019-04-21T14:25:08.036Z,26.37
2019-04-21T14:27:38.475Z,26.13
2019-04-21T14:30:08.435Z,26.02
2019-04-21T14:32:38.008Z,25.95
2019-04-21T14:35:09.070Z,25.95
2019-04-21T14:37:38.594Z,25.99
2019-04-21T14:40:13.713Z,26.07
2019-04-21T14:42:40.195Z,26.18
2019-04-21T14:45:12.717Z,26.03
2019-04-21T14:48:00.851Z,26.07
2019-04-21T14:50:50.476Z,26.19
2019-04-21T14:53:23.531Z,26.40
2019-04-21T14:55:53.239Z,26.49
2019-04-21T14:58:23.396Z,26.46
2019-04-21T15:00:59.946Z,26.78
2019-04-21T15:03:32.313Z,26.78
2019-04-21T15:06:01.478Z,26.76
2019-04-21T15:08:39.467Z,26.78
2019-04-21T15:11:08.817Z,26.78
2019-04-21T15:13:37.991Z,26.67
2019-04-21T15:16:07.283Z,26.02
2019-04-21T15:18:36.876Z,26.02
2019-04-21T15:21:07.627Z,26.04
2019-04-21T15:23:38.185Z,26.12
2019-04-21T15:26:08.345Z,26.18
2019-04-21T15:28:39.109Z,26.18
2019-04-21T15:31:12.638Z,26.23
2019-04-21T15:33:39.428Z,26.23
2019-04-21T15:36:09.075Z,26.37
2019-04-21T15:38:38.265Z,26.37
2019-04-21T15:41:10.567Z,26.32
2019-04-21T15:43:38.633Z,26.24
2019-04-21T15:46:08.821Z,26.19
2019-04-21T15:48:39.187Z,26.12
2019-04-21T15:51:09.312Z,26.03
2019-04-21T15:53:39.736Z,26.04
2019-04-21T15:56:15.552Z,26.21
2019-04-21T15:59:02.293Z,26.31
2019-04-21T16:01:46.377Z,26.31
2019-04-21T16:04:16.815Z,26.20
2019-04-21T16:06:47.726Z,26.15
2019-04-21T16:09:21.470Z,26.22
2019-04-21T16:11:49.582Z,26.29
2019-04-21T16:14:18.950Z,26.20
2019-04-21T16:16:49.143Z,26.13
2019-04-21T16:19:20.168Z,25.98
2019-04-21T16:21:50.568Z,25.96
2019-04-21T16:24:21.309Z,25.96
2019-04-21T16:26:50.861Z,25.88
2019-04-21T16:29:20.863Z,25.85
2019-04-21T16:31:51.145Z,25.87
2019-04-21T16:34:21.873Z,25.80
2019-04-21T16:36:51.804Z,25.80
2019-04-21T16:39:21.216Z,25.72
2019-04-21T16:41:50.429Z,25.57
2019-04-21T16:44:21.027Z,25.45
2019-04-21T16:46:51.573Z,25.35
2019-04-21T16:49:22.041Z,25.32
2019-04-21T16:52:12.124Z,25.19
2019-04-21T16:54:42.202Z,24.98
2019-04-21T16:57:23.807Z,24.90
2019-04-21T16:59:56.751Z,24.84
2019-04-21T17:02:26.091Z,24.77
2019-04-21T17:04:56.277Z,24.73
2019-04-21T17:07:26.235Z,24.79
2019-04-21T17:09:56.755Z,24.75
2019-04-21T17:12:26.785Z,24.60
2019-04-21T17:15:10.831Z,24.50
2019-04-21T17:17:52.750Z,24.50
2019-04-21T17:20:13.920Z,24.38
2019-04-21T17:22:31.086Z,24.35
2019-04-21T17:25:00.691Z,24.30
2019-04-21T17:27:31.215Z,24.19
2019-04-21T17:30:01.201Z,24.10
2019-04-21T17:32:34.352Z,23.99
2019-04-21T17:35:01.957Z,23.88
2019-04-21T17:37:32.434Z,23.77
2019-04-21T17:40:03.947Z,23.62
2019-04-21T17:42:41.086Z,23.49
2019-04-21T17:45:03.676Z,23.47
2019-04-21T17:47:44.648Z,23.33
2019-04-21T17:50:29.474Z,23.21
2019-04-21T17:53:10.038Z,23.14
2019-04-21T17:55:37.351Z,22.89
2019-04-21T17:58:21.676Z,22.82
2019-04-21T18:01:10.375Z,22.59
2019-04-21T18:03:40.410Z,22.46
2019-04-21T18:05:57.025Z,22.33
2019-04-21T18:08:30.585Z,22.25
2019-04-21T18:10:57.375Z,22.17
2019-04-21T18:13:18.236Z,21.96
2019-04-21T18:15:55.776Z,21.80
2019-04-21T18:18:16.695Z,21.73
2019-04-21T18:20:53.239Z,21.56
2019-04-21T18:23:50.612Z,21.48
2019-04-21T18:26:25.627Z,21.37
2019-04-21T18:28:41.789Z,21.25
2019-04-21T18:31:12.717Z,21.13
2019-04-21T18:34:11.962Z,21.02
2019-04-21T18:36:58.831Z,20.90
2019-04-21T18:39:46.422Z,20.69
2019-04-21T18:42:21.326Z,20.55
2019-04-21T18:48:02.639Z,20.32
2019-04-21T18:50:46.264Z,20.17
2019-04-21T18:53:23.820Z,20.04
2019-04-21T18:55:49.143Z,19.89
2019-04-21T18:58:15.745Z,19.83
2019-04-21T19:00:45.788Z,19.69
2019-04-21T19:03:19.879Z,19.61
2019-04-21T19:05:53.199Z,19.50
2019-04-21T19:08:30.668Z,19.44
2019-04-21T19:11:10.041Z,19.36
2019-04-21T19:13:55.290Z,19.27
2019-04-21T19:16:28.085Z,19.21
2019-04-21T19:19:01.624Z,19.11
2019-04-21T19:21:18.942Z,19.09
2019-04-21T19:23:58.856Z,18.98
2019-04-21T19:26:29.884Z,18.89
2019-04-21T19:28:52.559Z,18.83
2019-04-21T19:31:24.720Z,18.71
2019-04-21T19:33:45.510Z,18.65
2019-04-21T19:36:05.558Z,18.60
2019-04-21T19:38:45.722Z,18.52
2019-04-21T19:41:20.459Z,18.38
2019-04-21T19:43:59.609Z,18.22
2019-04-21T19:46:23.695Z,18.10
2019-04-21T19:49:00.926Z,17.95
2019-04-21T19:51:22.207Z,17.85
2019-04-21T19:53:50.361Z,17.76
2019-04-21T19:56:12.041Z,17.69
2019-04-21T19:58:45.218Z,17.58
2019-04-21T20:01:12.138Z,17.52
2019-04-21T20:03:43.110Z,17.48
2019-04-21T20:06:28.671Z,17.49
2019-04-21T20:09:00.959Z,17.48
2019-04-21T20:11:33.680Z,17.42
2019-04-21T20:14:35.680Z,17.41
2019-04-21T20:16:37.829Z,17.40
2019-04-21T20:18:55.358Z,17.33
2019-04-21T20:21:20.770Z,17.25
2019-04-21T20:23:49.904Z,17.18
2019-04-21T20:26:24.608Z,17.11
2019-04-21T20:29:00.105Z,17.09
2019-04-21T20:31:36.750Z,17.02
2019-04-21T20:34:11.498Z,16.95
2019-04-21T20:36:41.864Z,16.88
2019-04-21T20:39:01.820Z,16.82
2019-04-21T20:41:36.723Z,16.77
2019-04-21T20:44:13.300Z,16.68
2019-04-21T20:46:41.360Z,16.61
2019-04-21T20:49:09.664Z,16.47
2019-04-21T20:51:46.858Z,16.38
2019-04-21T20:54:17.602Z,16.26
2019-04-21T20:56:55.104Z,16.17
2019-04-21T20:59:17.539Z,16.13
2019-04-21T21:01:48.899Z,16.08
2019-04-21T21:04:17.546Z,16.01
2019-04-21T21:06:45.506Z,15.92
2019-04-21T21:09:19.901Z,15.82
2019-04-21T21:12:12.792Z,15.77
2019-04-21T21:14:23.417Z,15.69
2019-04-21T21:16:58.504Z,15.60
2019-04-21T21:19:28.571Z,15.51
2019-04-21T21:21:55.379Z,15.47
2019-04-21T21:24:36.422Z,15.43
2019-04-21T21:26:57.806Z,15.28
2019-04-21T21:29:29.160Z,15.21
2019-04-21T21:32:08.522Z,15.14
2019-04-21T21:34:37.161Z,15.14
2019-04-21T21:37:12.933Z,15.14
2019-04-21T21:39:40.433Z,15.15
2019-04-21T21:41:52.258Z,15.13
2019-04-21T21:44:21.874Z,15.14
2019-04-21T21:47:00.505Z,15.07
2019-04-21T21:49:33.348Z,15.03
2019-04-21T21:51:59.846Z,14.94
2019-04-21T21:54:22.112Z,14.81
2019-04-21T21:56:52.330Z,14.64
2019-04-21T21:59:25.699Z,14.56
2019-04-21T22:01:54.900Z,14.47
2019-04-21T22:04:28.221Z,14.33
2019-04-21T22:07:02.264Z,14.29
2019-04-21T22:09:26.265Z,14.27
2019-04-21T22:12:00.472Z,14.23
2019-04-21T22:14:34.046Z,14.21
2019-04-21T22:17:20.761Z,14.11
2019-04-21T22:19:54.052Z,14.07
2019-04-21T22:22:15.118Z,14.03
2019-04-21T22:24:46.652Z,13.91
2019-04-21T22:27:01.148Z,13.82
2019-04-21T22:29:38.087Z,13.75
2019-04-21T22:32:09.521Z,13.62
2019-04-21T22:34:38.701Z,13.52
2019-04-21T22:37:23.245Z,13.43
2019-04-21T22:39:49.666Z,13.34
2019-04-21T22:42:12.154Z,13.33
2019-04-21T22:44:36.414Z,13.20
2019-04-21T22:47:14.092Z,13.18
2019-04-21T22:49:37.061Z,13.12
2019-04-21T22:52:11.325Z,12.99
2019-04-21T22:54:40.931Z,12.85
2019-04-21T22:57:14.685Z,12.80
2019-04-21T22:59:40.440Z,12.74
2019-04-21T23:02:16.285Z,12.68
2019-04-21T23:04:46.206Z,12.62
2019-04-21T23:07:15.831Z,12.58
2019-04-21T23:09:43.225Z,12.60
2019-04-21T23:12:22.842Z,12.60
2019-04-21T23:14:54.659Z,12.62
2019-04-21T23:17:34.918Z,12.59
2019-04-21T23:20:05.724Z,12.55
2019-04-21T23:22:34.049Z,12.48
2019-04-21T23:25:09.445Z,12.36
2019-04-21T23:27:34.193Z,12.28
2019-04-21T23:30:13.544Z,12.24
2019-04-21T23:32:30.376Z,12.22
2019-04-21T23:34:51.104Z,12.25
2019-04-21T23:37:24.133Z,12.25
2019-04-21T23:39:59.648Z,12.22
2019-04-21T23:42:31.106Z,12.16
2019-04-21T23:44:58.100Z,12.02
2019-04-21T23:47:34.599Z,11.94
2019-04-21T23:50:02.719Z,11.83
2019-04-21T23:52:27.731Z,11.80
2019-04-21T23:54:57.129Z,11.78
2019-04-21T23:57:32.597Z,11.74
2019-04-21T23:59:59.124Z,11.68
